createdAt,value
2023-02-19T00:00:38.078Z,12.3
2023-02-19T00:01:54.521Z,12.4
2023-02-19T00:03:09.493Z,12.4
2023-02-19T00:04:19.000Z,12.3
2023-02-19T00:05:21.000Z,12.4
2023-02-19T00:05:40.906Z,12.2
2023-02-19T00:06:56.358Z,12.1
2023-02-19T00:08:12.310Z,12.2
2023-02-19T00:09:28.755Z,12.4
2023-02-19T00:11:53.000Z,12.4
2023-02-19T00:13:16.368Z,12.4
2023-02-19T00:14:25.000Z,12.3
2023-02-19T00:15:47.515Z,12.2
2023-02-19T00:16:57.000Z,12.2
2023-02-19T00:18:13.000Z,12.2
2023-02-19T00:19:29.000Z,12.3
2023-02-19T00:20:52.289Z,12.3
2023-02-19T00:22:08.483Z,12.3
2023-02-19T00:23:24.676Z,12.2
2023-02-19T00:24:40.870Z,12.2
2023-02-19T00:25:57.063Z,12.2
2023-02-19T00:27:13.256Z,12.2
2023-02-19T00:28:29.694Z,12.3
2023-02-19T00:29:39.000Z,12.3
2023-02-19T00:31:01.837Z,12.2
2023-02-19T00:32:10.000Z,12.2
2023-02-19T00:33:33.240Z,12.2
2023-02-19T00:34:49.434Z,12.2
2023-02-19T00:36:05.628Z,12.3
2023-02-19T00:37:22.075Z,12.3
2023-02-19T00:38:38.015Z,12.2
2023-02-19T00:39:53.482Z,12.2
2023-02-19T00:41:02.000Z,12.1
2023-02-19T00:42:23.911Z,12.1
2023-02-19T00:43:39.127Z,12.2
2023-02-19T00:44:55.317Z,12.1
2023-02-19T00:46:11.263Z,12.1
2023-02-19T00:47:21.000Z,12.1
2023-02-19T00:48:37.000Z,12.1
2023-02-19T00:49:59.844Z,12.1
2023-02-19T00:51:16.296Z,12.1
2023-02-19T00:52:38.051Z,12
2023-02-19T00:53:48.425Z,12
2023-02-19T00:55:04.619Z,12.1
2023-02-19T00:56:21.068Z,12.1
2023-02-19T00:57:30.000Z,12.1
2023-02-19T00:58:53.200Z,12.1
2023-02-19T01:00:08.409Z,12.1
2023-02-19T01:01:24.603Z,12.1
2023-02-19T01:02:34.000Z,12.1
2023-02-19T01:03:50.000Z,12.1
2023-02-19T01:05:13.184Z,12
2023-02-19T01:06:29.377Z,12
2023-02-19T01:07:45.571Z,11.9
2023-02-19T01:09:01.765Z,11.9
2023-02-19T01:11:26.000Z,11.9
2023-02-19T01:12:42.000Z,11.9
2023-02-19T01:14:03.608Z,11.8
2023-02-19T01:15:19.074Z,11.8
2023-02-19T01:16:34.039Z,11.8
2023-02-19T01:17:50.232Z,11.9
2023-02-19T01:19:06.426Z,11.9
2023-02-19T01:20:22.620Z,11.9
2023-02-19T01:21:38.813Z,11.9
2023-02-19T01:22:48.000Z,11.9
2023-02-19T01:24:11.201Z,11.9
2023-02-19T01:25:27.394Z,11.9
2023-02-19T01:26:43.588Z,12
2023-02-19T01:28:00.029Z,12.1
2023-02-19T01:29:15.976Z,12.1
2023-02-19T01:30:32.170Z,12.1
2023-02-19T01:31:48.363Z,12.1
2023-02-19T01:33:03.573Z,12.1
2023-02-19T01:34:19.767Z,12
2023-02-19T01:35:35.961Z,12
2023-02-19T01:36:52.405Z,12
2023-02-19T01:38:08.600Z,12
2023-02-19T01:39:24.541Z,12
2023-02-19T01:40:34.000Z,11.9
2023-02-19T01:41:56.928Z,11.8
2023-02-19T01:43:05.000Z,11.7
2023-02-19T01:44:27.359Z,11.8
2023-02-19T01:45:42.579Z,11.8
2023-02-19T01:46:57.789Z,11.9
2023-02-19T01:48:07.000Z,11.9
2023-02-19T01:49:30.176Z,11.8
2023-02-19T01:50:40.000Z,11.7
2023-02-19T01:51:56.000Z,11.8
2023-02-19T01:53:18.757Z,11.7
2023-02-19T01:54:34.950Z,11.7
2023-02-19T01:55:48.000Z,11.7
2023-02-19T01:57:07.338Z,11.8
2023-02-19T01:59:20.010Z,11.8
2023-02-19T01:59:39.725Z,11.8
2023-02-19T02:00:49.000Z,11.7
2023-02-19T02:02:12.112Z,11.7
2023-02-19T02:03:27.571Z,11.7
2023-02-19T02:04:37.000Z,11.7
2023-02-19T02:05:59.710Z,11.7
2023-02-19T02:07:15.905Z,11.7
2023-02-19T02:08:32.099Z,11.7
2023-02-19T02:09:48.543Z,11.7
2023-02-19T02:11:04.486Z,11.7
2023-02-19T02:12:19.706Z,11.7
2023-02-19T02:13:28.000Z,11.7
2023-02-19T02:14:51.360Z,11.7
2023-02-19T02:16:06.581Z,11.7
2023-02-19T02:17:21.541Z,11.7
2023-02-19T02:18:37.734Z,11.8
2023-02-19T02:19:53.928Z,11.8
2023-02-19T02:21:07.000Z,11.8
2023-02-19T02:22:26.316Z,11.8
2023-02-19T02:23:42.510Z,11.8
2023-02-19T02:24:58.703Z,11.8
2023-02-19T02:26:08.000Z,11.9
2023-02-19T02:27:31.090Z,12
2023-02-19T02:28:47.284Z,11.9
2023-02-19T02:30:03.723Z,11.9
2023-02-19T02:31:19.672Z,11.8
2023-02-19T02:32:29.000Z,11.8
2023-02-19T02:33:51.076Z,11.9
2023-02-19T02:35:01.000Z,12
2023-02-19T02:36:23.463Z,11.9
2023-02-19T02:37:39.657Z,12
2023-02-19T02:38:55.850Z,12
2023-02-19T02:40:12.044Z,12
2023-02-19T02:41:28.479Z,11.9
2023-02-19T02:42:37.000Z,12
2023-02-19T02:43:58.668Z,12
2023-02-19T02:45:14.862Z,12
2023-02-19T02:46:27.000Z,12
2023-02-19T02:47:45.302Z,12
2023-02-19T02:49:01.496Z,12
2023-02-19T02:50:17.689Z,12
2023-02-19T02:51:27.000Z,12
2023-02-19T02:52:50.077Z,12
2023-02-19T02:54:06.270Z,12
2023-02-19T02:55:22.464Z,12
2023-02-19T02:56:38.658Z,12
2023-02-19T02:57:48.000Z,12
2023-02-19T02:59:11.045Z,12
2023-02-19T03:00:27.238Z,12
2023-02-19T03:01:43.432Z,12.1
2023-02-19T03:02:59.873Z,12.1
2023-02-19T03:04:14.835Z,12.1
2023-02-19T03:05:31.030Z,12.1
2023-02-19T03:06:47.224Z,12
2023-02-19T03:08:03.417Z,12.1
2023-02-19T03:09:13.000Z,12
2023-02-19T03:10:29.000Z,12
2023-02-19T03:11:51.999Z,12
2023-02-19T03:13:07.463Z,12.1
2023-02-19T03:14:16.000Z,12.1
2023-02-19T03:15:37.900Z,12.1
2023-02-19T03:16:53.109Z,12.1
2023-02-19T03:18:09.055Z,12.2
2023-02-19T03:20:23.303Z,12.1
2023-02-19T03:20:35.000Z,12.1
2023-02-19T03:21:54.000Z,12.1
2023-02-19T03:23:13.829Z,12.1
2023-02-19T03:24:27.000Z,12.1
2023-02-19T03:25:46.217Z,12.1
2023-02-19T03:27:02.663Z,12.1
2023-02-19T03:28:18.605Z,12.2
2023-02-19T03:29:34.798Z,12.1
2023-02-19T03:30:50.992Z,12.2
2023-02-19T03:32:07.429Z,12.1
2023-02-19T03:33:22.643Z,12
2023-02-19T03:34:38.840Z,12
2023-02-19T03:35:48.000Z,12
2023-02-19T03:37:10.976Z,12
2023-02-19T03:38:27.424Z,11.9
2023-02-19T03:39:40.000Z,12
2023-02-19T03:40:59.557Z,12
2023-02-19T03:42:14.777Z,12
2023-02-19T03:43:29.987Z,12
2023-02-19T03:44:46.428Z,12
2023-02-19T03:46:01.650Z,12
2023-02-19T03:47:16.610Z,12.1
2023-02-19T03:48:26.000Z,12
2023-02-19T03:49:42.000Z,11.9
2023-02-19T03:50:58.000Z,11.8
2023-02-19T03:52:15.000Z,11.8
2023-02-19T03:53:37.830Z,11.8
2023-02-19T03:54:53.773Z,11.9
2023-02-19T03:56:10.212Z,11.8
2023-02-19T03:57:26.161Z,11.7
2023-02-19T03:58:42.354Z,11.7
2023-02-19T03:59:52.000Z,11.7
2023-02-19T04:01:14.741Z,11.8
2023-02-19T04:02:30.935Z,11.8
2023-02-19T04:03:27.000Z,11.8
2023-02-19T04:03:46.145Z,11.8
2023-02-19T04:05:02.338Z,11.8
2023-02-19T04:06:18.532Z,11.7
2023-02-19T04:07:34.968Z,11.8
2023-02-19T04:10:00.000Z,11.8
2023-02-19T04:11:23.306Z,11.8
2023-02-19T04:12:32.000Z,11.8
2023-02-19T04:13:53.979Z,11.8
2023-02-19T04:15:08.957Z,11.8
2023-02-19T04:16:24.410Z,11.8
2023-02-19T04:17:40.360Z,11.9
2023-02-19T04:18:50.000Z,11.8
2023-02-19T04:20:06.000Z,11.8
2023-02-19T04:21:28.942Z,11.8
2023-02-19T04:22:45.136Z,11.7
2023-02-19T04:24:01.329Z,11.8
2023-02-19T04:25:17.523Z,11.7
2023-02-19T04:26:27.000Z,11.8
2023-02-19T04:27:50.170Z,11.8
2023-02-19T04:29:06.349Z,11.8
2023-02-19T04:31:16.981Z,11.7
2023-02-19T04:31:38.810Z,11.8
2023-02-19T04:32:53.947Z,11.8
2023-02-19T04:34:09.895Z,11.8
2023-02-19T04:35:19.000Z,11.9
2023-02-19T04:36:42.282Z,11.8
2023-02-19T04:37:58.476Z,11.8
2023-02-19T04:39:14.909Z,11.8
2023-02-19T04:40:30.863Z,11.8
2023-02-19T04:41:46.084Z,11.9
2023-02-19T04:43:34.907Z,11.9
2023-02-19T04:44:16.514Z,11.8
2023-02-19T04:45:31.724Z,11.8
2023-02-19T04:46:29.000Z,11.8
2023-02-19T04:46:48.173Z,11.8
2023-02-19T04:47:57.000Z,11.7
2023-02-19T04:49:20.563Z,11.8
2023-02-19T04:50:30.000Z,11.8
2023-02-19T04:53:05.000Z,11.9
2023-02-19T04:54:25.080Z,11.8
2023-02-19T04:55:41.274Z,11.8
2023-02-19T04:56:57.468Z,11.8
2023-02-19T04:58:13.915Z,11.7
2023-02-19T04:59:29.855Z,11.7
2023-02-19T05:00:46.049Z,11.7
2023-02-19T05:02:01.259Z,11.7
2023-02-19T05:03:11.000Z,11.7
2023-02-19T05:04:33.645Z,11.8
2023-02-19T05:05:50.164Z,11.8
2023-02-19T05:06:59.000Z,11.7
2023-02-19T05:08:16.000Z,11.7
2023-02-19T05:09:38.666Z,11.7
2023-02-19T05:10:53.640Z,11.7
2023-02-19T05:12:08.851Z,11.7
2023-02-19T05:13:25.044Z,11.8
2023-02-19T05:14:40.264Z,11.8
2023-02-19T05:15:55.722Z,11.6
2023-02-19T05:17:05.000Z,11.7
2023-02-19T05:18:24.000Z,11.7
2023-02-19T05:19:44.056Z,11.6
2023-02-19T05:21:00.504Z,11.6
2023-02-19T05:22:10.000Z,11.6
2023-02-19T05:23:32.638Z,11.6
2023-02-19T05:24:49.082Z,11.6
2023-02-19T05:26:05.025Z,11.6
2023-02-19T05:27:14.000Z,11.5
2023-02-19T05:28:46.785Z,11.5
2023-02-19T05:29:53.606Z,11.5
2023-02-19T05:31:09.799Z,11.5
2023-02-19T05:32:25.010Z,11.5
2023-02-19T05:33:54.550Z,11.6
2023-02-19T05:34:57.650Z,11.5
2023-02-19T05:36:13.833Z,11.6
2023-02-19T05:37:23.000Z,11.5
2023-02-19T05:38:45.978Z,11.6
2023-02-19T05:40:02.420Z,11.6
2023-02-19T05:41:17.391Z,11.6
2023-02-19T05:42:33.827Z,11.6
2023-02-19T05:43:42.000Z,11.6
2023-02-19T05:45:04.015Z,11.7
2023-02-19T05:46:12.000Z,11.6
2023-02-19T05:47:35.677Z,11.6
2023-02-19T05:48:51.863Z,11.6
2023-02-19T05:50:07.807Z,11.6
2023-02-19T05:51:24.001Z,11.6
2023-02-19T05:52:40.194Z,11.6
2023-02-19T05:53:56.388Z,11.6
2023-02-19T05:55:12.832Z,11.7
2023-02-19T05:56:28.775Z,11.6
2023-02-19T05:57:44.969Z,11.7
2023-02-19T05:58:54.000Z,11.6
2023-02-19T06:00:17.356Z,11.6
2023-02-19T06:01:27.000Z,11.6
2023-02-19T06:02:49.994Z,11.6
2023-02-19T06:04:05.209Z,11.4
2023-02-19T06:05:21.396Z,11.5
2023-02-19T06:06:37.340Z,11.5
2023-02-19T06:07:53.782Z,11.4
2023-02-19T06:09:06.000Z,11.5
2023-02-19T06:10:25.922Z,11.5
2023-02-19T06:11:41.391Z,11.5
2023-02-19T06:12:50.000Z,11.4
2023-02-19T06:14:06.000Z,11.4
2023-02-19T06:15:28.739Z,11.3
2023-02-19T06:16:59.080Z,11.4
2023-02-19T06:17:59.169Z,11.3
2023-02-19T06:20:02.472Z,11.3
2023-02-19T06:20:13.000Z,11.2
2023-02-19T06:20:31.556Z,11.2
2023-02-19T06:22:06.844Z,11.2
2023-02-19T06:23:04.188Z,11.2
2023-02-19T06:24:13.000Z,11.2
2023-02-19T06:26:52.778Z,11.2
2023-02-19T06:28:08.975Z,11.3
2023-02-19T06:30:20.971Z,11.2
2023-02-19T06:30:34.000Z,11.1
2023-02-19T06:32:26.342Z,11.1
2023-02-19T06:33:07.000Z,11.1
2023-02-19T06:34:10.000Z,11.1
2023-02-19T06:34:28.946Z,11.1
2023-02-19T06:35:44.896Z,11.1
2023-02-19T06:36:54.000Z,11.1
2023-02-19T06:38:17.536Z,11.2
2023-02-19T06:40:49.927Z,11.2
2023-02-19T06:41:59.000Z,11.1
2023-02-19T06:43:21.336Z,11.2
2023-02-19T06:44:36.294Z,11.2
2023-02-19T06:45:52.488Z,11.2
2023-02-19T06:47:02.000Z,11.2
2023-02-19T06:48:25.141Z,11.2
2023-02-19T06:49:34.000Z,11.2
2023-02-19T06:50:57.510Z,11.2
2023-02-19T06:52:07.000Z,11.2
2023-02-19T06:53:29.650Z,11.3
2023-02-19T06:54:39.000Z,11.3
2023-02-19T06:56:02.307Z,11.3
2023-02-19T06:57:11.000Z,11.2
2023-02-19T06:58:34.424Z,11.2
2023-02-19T06:59:50.618Z,11.3
2023-02-19T07:01:05.833Z,11.3
2023-02-19T07:02:15.000Z,11.2
2023-02-19T07:03:38.470Z,11.3
2023-02-19T07:04:54.663Z,11.2
2023-02-19T07:06:10.608Z,11.2
2023-02-19T07:07:20.000Z,11.3
2023-02-19T07:08:43.241Z,11.3
2023-02-19T07:09:58.459Z,11.3
2023-02-19T07:11:07.000Z,11.2
2023-02-19T07:12:22.000Z,11.3
2023-02-19T07:13:43.856Z,11.4
2023-02-19T07:15:00.370Z,11.5
2023-02-19T07:16:15.270Z,11.4
2023-02-19T07:17:31.729Z,11.4
2023-02-19T07:18:46.674Z,11.4
2023-02-19T07:20:36.658Z,11.4
2023-02-19T07:21:19.060Z,11.4
2023-02-19T07:22:35.254Z,11.4
2023-02-19T07:23:45.000Z,11.4
2023-02-19T07:25:07.641Z,11.3
2023-02-19T07:26:23.835Z,11.3
2023-02-19T07:27:50.778Z,11.3
2023-02-19T07:28:56.465Z,11.3
2023-02-19T07:30:06.000Z,11.2
2023-02-19T07:31:28.610Z,11.2
2023-02-19T07:33:00.527Z,11.3
2023-02-19T07:34:00.997Z,11.2
2023-02-19T07:35:16.207Z,11.3
2023-02-19T07:36:32.653Z,11.3
2023-02-19T07:37:48.595Z,11.3
2023-02-19T07:39:04.788Z,11.2
2023-02-19T07:40:14.000Z,11.3
2023-02-19T07:41:30.000Z,11.2
2023-02-19T07:42:46.000Z,11.3
2023-02-19T07:44:01.000Z,11.3
2023-02-19T07:46:18.459Z,11.3
2023-02-19T07:46:39.019Z,11.2
2023-02-19T07:47:54.229Z,11.2
2023-02-19T07:49:10.671Z,11.1
2023-02-19T07:50:20.000Z,11.2
2023-02-19T07:51:42.810Z,11.3
2023-02-19T07:52:52.000Z,11.1
2023-02-19T07:54:15.447Z,11.2
2023-02-19T07:55:25.000Z,11.2
2023-02-19T07:56:47.584Z,11.3
2023-02-19T07:57:57.000Z,11.3
2023-02-19T07:59:19.972Z,11.2
2023-02-19T08:00:33.000Z,11.3
2023-02-19T08:01:52.359Z,11.3
2023-02-19T08:03:02.000Z,11.3
2023-02-19T08:04:23.763Z,11.3
2023-02-19T08:05:33.000Z,11.2
2023-02-19T08:06:56.150Z,11.3
2023-02-19T08:08:12.344Z,11.4
2023-02-19T08:09:22.000Z,11.3
2023-02-19T08:10:41.000Z,11.2
2023-02-19T08:12:01.173Z,11.2
2023-02-19T08:13:17.119Z,11.2
2023-02-19T08:14:26.000Z,11.1
2023-02-19T08:15:47.813Z,11.1
2023-02-19T08:17:02.770Z,11.1
2023-02-19T08:18:11.000Z,11
2023-02-19T08:19:34.647Z,11.1
2023-02-19T08:20:50.368Z,11
2023-02-19T08:22:06.563Z,11
2023-02-19T08:23:16.000Z,11
2023-02-19T08:24:38.950Z,11
2023-02-19T08:25:55.144Z,10.9
2023-02-19T08:27:11.337Z,11
2023-02-19T08:28:27.531Z,11
2023-02-19T08:29:37.000Z,11
2023-02-19T08:30:59.918Z,11
2023-02-19T08:32:09.000Z,11
2023-02-19T08:33:32.556Z,11
2023-02-19T08:34:48.500Z,11.1
2023-02-19T08:35:57.000Z,11.1
2023-02-19T08:37:19.903Z,11.2
2023-02-19T08:38:29.000Z,11.2
2023-02-19T08:39:52.291Z,11.2
2023-02-19T08:41:05.000Z,11.3
2023-02-19T08:42:24.929Z,11.3
2023-02-19T08:43:39.898Z,11.3
2023-02-19T08:44:55.355Z,11.4
2023-02-19T08:46:11.302Z,11.4
2023-02-19T08:47:07.000Z,11.7
2023-02-19T08:47:21.000Z,11.3
2023-02-19T08:48:42.960Z,11.4
2023-02-19T08:49:59.158Z,11.5
2023-02-19T08:51:07.000Z,11.5
2023-02-19T08:53:43.000Z,11.7
2023-02-19T08:54:56.000Z,11.8
2023-02-19T08:56:18.893Z,11.7
2023-02-19T08:57:35.342Z,11.8
2023-02-19T08:58:45.000Z,11.8
2023-02-19T09:00:07.729Z,11.9
2023-02-19T09:01:23.668Z,11.9
2023-02-19T09:02:40.115Z,11.8
2023-02-19T09:03:56.301Z,11.9
2023-02-19T09:05:12.524Z,12
2023-02-19T09:06:28.691Z,12
2023-02-19T09:07:43.653Z,12.1
2023-02-19T09:08:53.000Z,12.2
2023-02-19T09:10:16.040Z,12
2023-02-19T09:11:32.482Z,12.1
2023-02-19T09:12:48.427Z,12
2023-02-19T09:14:01.000Z,12
2023-02-19T09:15:20.090Z,12.1
2023-02-19T09:16:35.052Z,12.1
2023-02-19T09:17:51.247Z,12.1
2023-02-19T09:19:07.441Z,12.2
2023-02-19T09:20:22.663Z,12.2
2023-02-19T09:21:31.000Z,12.3
2023-02-19T09:22:54.070Z,12.1
2023-02-19T09:24:10.264Z,12.2
2023-02-19T09:25:26.713Z,12.2
2023-02-19T09:26:42.654Z,12.2
2023-02-19T09:27:59.105Z,12.2
2023-02-19T09:29:15.044Z,12.3
2023-02-19T09:30:24.000Z,12.3
2023-02-19T09:31:41.000Z,12.3
2023-02-19T09:33:03.628Z,12.5
2023-02-19T09:34:20.072Z,12.4
2023-02-19T09:35:36.274Z,12.4
2023-02-19T09:36:45.000Z,12.5
2023-02-19T09:38:07.676Z,12.6
2023-02-19T09:40:17.674Z,12.5
2023-02-19T09:40:39.814Z,12.5
2023-02-19T09:41:56.009Z,12.5
2023-02-19T09:43:12.204Z,12.5
2023-02-19T09:44:28.399Z,12.5
2023-02-19T09:45:24.000Z,12.3
2023-02-19T09:45:44.840Z,12.5
2023-02-19T09:46:59.816Z,12.3
2023-02-19T09:48:15.279Z,12.3
2023-02-19T09:49:31.223Z,12.3
2023-02-19T09:52:03.613Z,12.3
2023-02-19T09:53:19.809Z,12.3
2023-02-19T09:54:36.004Z,12.4
2023-02-19T09:55:52.200Z,12.5
2023-02-19T09:57:08.395Z,12.6
2023-02-19T09:58:24.843Z,12.5
2023-02-19T09:59:34.000Z,12.6
2023-02-19T10:00:57.234Z,12.5
2023-02-19T10:02:06.000Z,12.6
2023-02-19T10:03:29.374Z,12.6
2023-02-19T10:04:39.000Z,12.5
2023-02-19T10:05:54.000Z,12.7
2023-02-19T10:07:16.975Z,12.7
2023-02-19T10:08:33.433Z,12.6
2023-02-19T10:09:49.615Z,12.7
2023-02-19T10:11:05.562Z,12.7
2023-02-19T10:12:15.000Z,12.6
2023-02-19T10:13:36.979Z,12.6
2023-02-19T10:14:52.444Z,12.6
2023-02-19T10:16:07.412Z,12.6
2023-02-19T10:18:15.480Z,12.7
2023-02-19T10:18:38.819Z,12.6
2023-02-19T10:19:55.014Z,12.7
2023-02-19T10:21:11.210Z,12.8
2023-02-19T10:22:27.405Z,12.7
2023-02-19T10:23:43.601Z,12.6
2023-02-19T10:24:59.796Z,12.5
2023-02-19T10:26:15.992Z,12.5
2023-02-19T10:27:32.187Z,12.4
2023-02-19T10:28:48.383Z,12.5
2023-02-19T10:30:04.578Z,12.6
2023-02-19T10:31:20.774Z,12.6
2023-02-19T10:32:36.969Z,12.6
2023-02-19T10:33:52.181Z,12.6
2023-02-19T10:34:49.000Z,12.3
2023-02-19T10:35:08.376Z,12.5
2023-02-19T10:36:24.820Z,12.5
2023-02-19T10:37:34.000Z,12.5
2023-02-19T10:38:56.962Z,12.5
2023-02-19T10:41:29.354Z,12.4
2023-02-19T10:42:44.575Z,12.2
2023-02-19T10:43:59.787Z,12.2
2023-02-19T10:45:15.981Z,12.3
2023-02-19T10:46:32.177Z,12.2
2023-02-19T10:47:48.372Z,12.2
2023-02-19T10:49:04.568Z,12.2
2023-02-19T10:50:14.000Z,12.2
2023-02-19T10:51:36.959Z,12.2
2023-02-19T10:52:46.000Z,12.1
2023-02-19T10:54:09.350Z,12.2
2023-02-19T10:55:25.546Z,12.2
2023-02-19T10:56:41.741Z,12.3
2023-02-19T10:57:57.937Z,12.1
2023-02-19T10:59:14.133Z,12.3
2023-02-19T11:00:29.344Z,12.2
2023-02-19T11:01:39.000Z,12.4
2023-02-19T11:03:01.735Z,12.4
2023-02-19T11:04:17.931Z,12.3
2023-02-19T11:05:34.126Z,12.4
2023-02-19T11:08:06.518Z,12.5
2023-02-19T11:09:22.713Z,12.4
2023-02-19T11:10:37.935Z,12.4
2023-02-19T11:11:54.131Z,12.2
2023-02-19T11:13:09.342Z,12
2023-02-19T11:14:24.823Z,12
2023-02-19T11:15:39.781Z,11.9
2023-02-19T11:16:55.003Z,11.9
2023-02-19T11:18:10.214Z,11.9
2023-02-19T11:19:20.000Z,12
2023-02-19T11:20:36.000Z,12
2023-02-19T11:21:58.801Z,12.2
2023-02-19T11:23:14.996Z,12.2
2023-02-19T11:24:31.192Z,12.1
2023-02-19T11:25:47.643Z,12.1
2023-02-19T11:27:03.583Z,12.1
2023-02-19T11:28:20.022Z,12.2
2023-02-19T11:29:35.974Z,12.2
2023-02-19T11:30:45.000Z,12.4
2023-02-19T11:32:08.365Z,12.6
2023-02-19T11:33:24.561Z,12.6
2023-02-19T11:34:33.000Z,12.2
2023-02-19T11:35:55.967Z,12.3
2023-02-19T11:37:12.163Z,12.1
2023-02-19T11:38:28.358Z,12.1
2023-02-19T11:39:44.554Z,12.3
2023-02-19T11:41:00.749Z,12.3
2023-02-19T11:42:16.945Z,12.2
2023-02-19T11:43:26.000Z,12.2
2023-02-19T11:44:49.581Z,12.1
2023-02-19T11:46:05.531Z,12.1
2023-02-19T11:47:21.727Z,12.2
2023-02-19T11:49:20.365Z,12.2
2023-02-19T11:49:54.118Z,12.2
2023-02-19T11:50:50.000Z,12.4
2023-02-19T11:51:09.577Z,12.2
2023-02-19T11:52:25.782Z,12.2
2023-02-19T11:53:41.720Z,12.3
2023-02-19T11:54:58.166Z,12.4
2023-02-19T11:57:30.307Z,12.5
2023-02-19T11:58:46.503Z,12.6
2023-02-19T12:00:02.948Z,12.7
2023-02-19T12:01:18.894Z,12.7
2023-02-19T12:02:35.089Z,12.8
2023-02-19T12:03:51.285Z,12.9
2023-02-19T12:05:07.480Z,13
2023-02-19T12:06:17.000Z,13.2
2023-02-19T12:07:39.145Z,13
2023-02-19T12:08:48.000Z,12.8
2023-02-19T12:10:11.289Z,12.8
2023-02-19T12:11:26.500Z,12.7
2023-02-19T12:12:22.000Z,12.3
2023-02-19T12:12:41.966Z,12.8
2023-02-19T12:13:57.186Z,12.7
2023-02-19T12:14:54.000Z,12.2
2023-02-19T12:15:06.000Z,12.6
2023-02-19T12:16:29.324Z,12.5
2023-02-19T12:18:55.000Z,12.2
2023-02-19T12:21:34.370Z,12.1
2023-02-19T12:22:50.303Z,12.1
2023-02-19T12:24:06.761Z,12.2
2023-02-19T12:25:22.694Z,12.3
2023-02-19T12:26:32.000Z,12.3
2023-02-19T12:27:48.000Z,12.3
2023-02-19T12:29:04.000Z,12.3
2023-02-19T12:30:26.492Z,12.3
2023-02-19T12:31:36.000Z,12.1
2023-02-19T12:32:59.126Z,11.9
2023-02-19T12:34:08.000Z,11.9
2023-02-19T12:35:31.273Z,11.8
2023-02-19T12:36:41.000Z,11.8
2023-02-19T12:38:03.913Z,11.9
2023-02-19T12:39:19.860Z,12
2023-02-19T12:40:29.000Z,12.1
2023-02-19T12:41:45.000Z,12.1
2023-02-19T12:43:01.000Z,12.1
2023-02-19T12:44:16.000Z,12.1
2023-02-19T12:45:38.164Z,12.2
2023-02-19T12:46:46.000Z,12.2
2023-02-19T12:48:03.000Z,12.2
2023-02-19T12:49:19.000Z,12.2
2023-02-19T12:50:35.000Z,12.1
2023-02-19T12:52:00.009Z,12.2
2023-02-19T12:52:55.000Z,12.4
2023-02-19T12:53:14.346Z,12.2
2023-02-19T12:55:05.390Z,12.4
2023-02-19T12:55:46.489Z,12.3
2023-02-19T12:57:09.765Z,12.4
2023-02-19T12:59:15.000Z,12.5
2023-02-19T12:59:35.075Z,12.3
2023-02-19T13:00:51.514Z,12.4
2023-02-19T13:02:19.521Z,12.6
2023-02-19T13:03:16.000Z,12.6
2023-02-19T13:05:48.000Z,12.6
2023-02-19T13:07:11.505Z,12.7
2023-02-19T13:08:27.705Z,12.6
2023-02-19T13:10:31.673Z,12.6
2023-02-19T13:10:53.000Z,12.6
2023-02-19T13:12:08.000Z,12.8
2023-02-19T13:13:30.283Z,12.8
2023-02-19T13:14:45.505Z,12.7
2023-02-19T13:16:00.970Z,12.8
2023-02-19T13:17:16.911Z,12.9
2023-02-19T13:18:33.350Z,12.9
2023-02-19T13:19:43.000Z,13
2023-02-19T13:20:46.000Z,13
2023-02-19T13:20:59.000Z,13
2023-02-19T13:22:21.693Z,12.9
2023-02-19T13:23:31.000Z,13
2023-02-19T13:24:47.000Z,13
2023-02-19T13:27:57.399Z,12.9
2023-02-19T13:28:42.671Z,12.8
2023-02-19T13:29:52.000Z,12.8
2023-02-19T13:31:08.000Z,12.9
2023-02-19T13:32:23.000Z,12.9
2023-02-19T13:33:46.469Z,12.8
2023-02-19T13:35:09.547Z,12.7
2023-02-19T13:36:18.860Z,12.7
2023-02-19T13:37:35.055Z,12.8
2023-02-19T13:38:51.251Z,12.9
2023-02-19T13:40:07.446Z,12.9
2023-02-19T13:41:23.886Z,13
2023-02-19T13:43:21.710Z,13
2023-02-19T13:43:54.339Z,12.9
2023-02-19T13:45:09.552Z,12.9
2023-02-19T13:46:24.765Z,13
2023-02-19T13:47:34.000Z,13.1
2023-02-19T13:48:57.154Z,13.2
2023-02-19T13:50:13.096Z,13.2
2023-02-19T13:51:22.000Z,13.3
2023-02-19T13:52:45.487Z,13.1
2023-02-19T13:54:01.683Z,13.1
2023-02-19T13:55:17.878Z,13
2023-02-19T13:56:34.074Z,13
2023-02-19T13:57:50.269Z,13
2023-02-19T13:59:06.465Z,13
2023-02-19T14:00:22.660Z,12.8
2023-02-19T14:01:38.856Z,12.8
2023-02-19T14:02:54.067Z,12.8
2023-02-19T14:04:10.264Z,12.7
2023-02-19T14:05:26.459Z,12.7
2023-02-19T14:06:36.000Z,12.8
2023-02-19T14:07:58.850Z,12.8
2023-02-19T14:08:54.000Z,12.8
2023-02-19T14:09:15.294Z,12.8
2023-02-19T14:10:31.241Z,12.7
2023-02-19T14:11:46.464Z,12.8
2023-02-19T14:13:02.659Z,12.8
2023-02-19T14:15:33.093Z,12.8
2023-02-19T14:16:49.532Z,12.7
2023-02-19T14:18:05.749Z,12.8
2023-02-19T14:19:21.680Z,12.8
2023-02-19T14:20:37.875Z,12.9
2023-02-19T14:21:47.000Z,12.9
2023-02-19T14:23:10.266Z,12.7
2023-02-19T14:24:07.000Z,12.5
2023-02-19T14:24:26.724Z,12.6
2023-02-19T14:25:23.000Z,12.5
2023-02-19T14:25:36.000Z,12.7
2023-02-19T14:26:58.855Z,12.7
2023-02-19T14:28:15.050Z,12.5
2023-02-19T14:32:02.914Z,12.5
2023-02-19T14:33:12.000Z,12.4
2023-02-19T14:34:35.046Z,12.4
2023-02-19T14:35:51.241Z,12.3
2023-02-19T14:37:01.000Z,12.3
2023-02-19T14:38:23.880Z,12.4
2023-02-19T14:39:33.000Z,12.4
2023-02-19T14:40:55.052Z,12.4
2023-02-19T14:42:03.000Z,12.5
2023-02-19T14:43:56.985Z,12.6
2023-02-19T14:44:42.656Z,12.6
2023-02-19T14:45:58.130Z,12.5
2023-02-19T14:47:14.460Z,12.4
2023-02-19T14:48:30.392Z,12.4
2023-02-19T14:49:46.589Z,12.5
2023-02-19T14:50:56.000Z,12.5
2023-02-19T14:52:12.000Z,12.6
2023-02-19T14:53:16.000Z,12.4
2023-02-19T14:53:35.175Z,12.6
2023-02-19T14:54:51.615Z,12.6
2023-02-19T14:56:07.566Z,12.5
2023-02-19T14:57:17.000Z,12.3
2023-02-19T14:59:56.153Z,12.4
2023-02-19T15:01:06.000Z,12.3
2023-02-19T15:02:28.545Z,12.1
2023-02-19T15:03:44.005Z,12.1
2023-02-19T15:04:59.952Z,12
2023-02-19T15:06:16.147Z,12.1
2023-02-19T15:07:32.597Z,12.1
2023-02-19T15:08:42.000Z,12.2
2023-02-19T15:10:04.735Z,12.2
2023-02-19T15:11:20.930Z,12.1
2023-02-19T15:12:36.153Z,12.2
2023-02-19T15:13:45.000Z,12.1
2023-02-19T15:15:07.561Z,12.1
2023-02-19T15:16:23.029Z,11.9
2023-02-19T15:17:31.000Z,11.9
2023-02-19T15:18:54.190Z,12
2023-02-19T15:19:51.000Z,12
2023-02-19T15:20:04.000Z,12
2023-02-19T15:21:20.000Z,12
2023-02-19T15:22:42.778Z,12
2023-02-19T15:23:52.000Z,12
2023-02-19T15:26:31.364Z,12.1
2023-02-19T15:27:47.560Z,12.2
2023-02-19T15:28:57.000Z,12.2
2023-02-19T15:30:18.973Z,12.1
2023-02-19T15:31:28.000Z,12.1
2023-02-19T15:32:51.609Z,12.1
2023-02-19T15:34:01.000Z,12.1
2023-02-19T15:35:24.012Z,12.2
2023-02-19T15:36:39.951Z,12.1
2023-02-19T15:37:56.149Z,12.1
2023-02-19T15:39:12.344Z,12
2023-02-19T15:40:28.789Z,12.1
2023-02-19T15:42:32.956Z,12.1
2023-02-19T15:43:00.205Z,11.9
2023-02-19T15:44:15.169Z,11.9
2023-02-19T15:45:31.614Z,12.1
2023-02-19T15:46:46.588Z,12.1
2023-02-19T15:48:02.784Z,12.1
2023-02-19T15:49:11.000Z,12
2023-02-19T15:50:34.436Z,12.1
2023-02-19T15:51:50.630Z,12.1
2023-02-19T15:53:00.000Z,12
2023-02-19T15:54:22.780Z,11.9
2023-02-19T15:55:39.240Z,11.9
2023-02-19T15:56:55.171Z,12
2023-02-19T15:58:05.000Z,11.9
2023-02-19T15:59:21.000Z,12
2023-02-19T16:00:44.011Z,12
2023-02-19T16:01:53.000Z,12
2023-02-19T16:03:16.399Z,11.9
2023-02-19T16:04:26.000Z,11.9
2023-02-19T16:05:47.559Z,11.9
2023-02-19T16:06:57.000Z,11.9
2023-02-19T16:08:13.000Z,11.9
2023-02-19T16:09:36.146Z,11.8
2023-02-19T16:10:46.000Z,11.8
2023-02-19T16:12:20.596Z,11.8
2023-02-19T16:13:24.014Z,11.7
2023-02-19T16:14:39.225Z,11.8
2023-02-19T16:15:55.413Z,11.8
2023-02-19T16:17:04.000Z,11.7
2023-02-19T16:18:25.603Z,11.7
2023-02-19T16:19:42.052Z,11.7
2023-02-19T16:20:58.243Z,11.7
2023-02-19T16:22:14.189Z,11.8
2023-02-19T16:23:30.385Z,11.8
2023-02-19T16:24:46.836Z,11.7
2023-02-19T16:27:18.973Z,11.6
2023-02-19T16:28:16.000Z,11.7
2023-02-19T16:28:35.421Z,11.7
2023-02-19T16:29:45.000Z,11.7
2023-02-19T16:31:07.562Z,11.6
2023-02-19T16:32:23.757Z,11.7
2023-02-19T16:34:55.164Z,11.6
2023-02-19T16:36:11.616Z,11.6
2023-02-19T16:37:21.000Z,11.7
2023-02-19T16:38:43.753Z,11.7
2023-02-19T16:39:53.000Z,11.7
2023-02-19T16:41:09.000Z,11.6
2023-02-19T16:42:26.000Z,11.7
2023-02-19T16:43:48.785Z,11.7
2023-02-19T16:44:57.000Z,11.8
2023-02-19T16:46:12.000Z,11.7
2023-02-19T16:47:34.191Z,11.7
2023-02-19T16:48:50.639Z,11.8
2023-02-19T16:49:59.000Z,11.8
2023-02-19T16:51:15.000Z,11.7
2023-02-19T16:52:31.000Z,11.7
2023-02-19T16:53:54.185Z,11.7
2023-02-19T16:55:04.000Z,11.7
2023-02-19T16:56:26.578Z,11.7
2023-02-19T16:57:43.022Z,11.7
2023-02-19T16:58:58.969Z,11.6
2023-02-19T17:00:15.164Z,11.6
2023-02-19T17:01:31.610Z,11.6
2023-02-19T17:03:38.352Z,11.5